Rongjiang, China
Current Conditions -  °F | °C
As of 12:00 AM on Sunday 23 Nov 2014 (Local Time) from ZGKL Reporting Station
Haze Haze  
Wind Chill: 64°   Ceiling: Unl
Heat Index: 64°   Visibility: 1.1mi
Dew Point: 63°   Wind: 2mph
Humidity: 94%   Direction: NA
Pressure: 30.03"   Gusts: NA
Location:  25.97°N, 108.53°E
Report Text: ZGKL 221600Z VRB01MPS 1800 BR NSC 18/17 Q1017 NOSIG
Loading
Personal Weather Stations






























Interactive Weather Map New forecast layout! Learn more

10-Day Weather Forecast

Advertisements
Track Severe Weather on mobile